Saint-Athanase, Canada
Current Conditions -  °F | °C
As of 4:53 AM on Friday 28 Nov 2014 (Local Time) from KFVE Reporting Station
Clear Clear  
Wind Chill:   Ceiling: Unl
Heat Index:   Visibility: 10mi
Dew Point:   Wind: 3mph
Humidity: 87%   Direction: 350°N
Pressure: 29.97"   Gusts: NA
Location:  47.43°N, 69.42°W
Report Text: KFVE 280953Z AUTO 35003KT 10SM CLR M13/M15 A2997 RMK AO2 SLP167 T11331150
Loading
Personal Weather Stations






























Interactive Weather Map New forecast layout! Learn more

10-Day Weather Forecast

Advertisements
Track Severe Weather on mobile